Dollar, United Kingdom
Current Conditions -  °F | °C
As of 4:20 PM on Tuesday 21 Oct 2014 (Local Time) from EGPH Reporting Station
Broken Clouds Broken Clouds  
Wind Chill: 42°   Ceiling: 4900
Heat Index: 48°   Visibility: 6mi
Dew Point: 34°   Wind: 16mph
Humidity: 57%   Direction: 280°W
Pressure: 29.68"   Gusts: NA
Location:  56.16°N, 3.67°W
Report Text: EGPH 211520Z AUTO 28014KT 9999 SCT042 BKN049 09/01 Q1005
Loading
Personal Weather Stations






























Interactive Weather Map
Tropical Storm Tracking
New forecast layout! Learn more

10-Day Weather Forecast

Advertisements
Track Severe Weather on mobile